Flight Track Log - Related Links

Times and Time Zones

All times are in EDT time to prevent confusion due to time zone crossing. See the UPS1143 flight status page for this flight to view local times or setup timezone preferences in your user account.

Time Position Orientation Groundspeed Altitude Reporting Facility
EDT Latitude Longitude Course Direction KTS MPH feet Rate Location/Type
Thu 11:11:31 PM 42.9390 -78.7400 98° East 10 12  Level FlightAware ADS-B
Thu 11:11:57 PM 42.9390 -78.7390 90° East 2 2 67 Level FlightAware ADS-B
Thu 11:12:43 PM 42.9380 -78.7380 144° Southeast 21 24 70 Level FlightAware ADS-B
Thu 11:13:21 PM 42.9370 -78.7370 144° Southeast 29 33 77 Level FlightAware ADS-B
Thu 11:15:42 PM 42.9340 -78.7360 166° South 29 33 84 Level FlightAware ADS-B
Thu 11:18:00 PM 42.7143 -78.8347 202° Southwest  Level FlightAware Approximate
Thu 11:19:00 PM 42.6210 -78.8866 202° Southwest  Level FlightAware Approximate
Thu 11:20:00 PM 42.5265 -78.9339 198° South  Level FlightAware Approximate
Thu 11:20:03 PM 42.9320 -78.7400 198° South 43 49  Level FlightAware ADS-B
Thu 11:20:15 PM 42.9360 -78.7360 36° Northeast 105 121 1,286 Level FlightAware ADS-B
Thu 11:20:31 PM 42.9440 -78.7250 45° Northeast 166 191 600 3,000 Climbing FlightAware ADS-B
Thu 11:20:59 PM 42.9590 -78.7070 41° Northeast 158 182 2,200 2,893 Climbing FlightAware ADS-B
Thu 11:21:27 PM 42.9710 -78.6830 56° Northeast 179 206 3,300 2,143 Climbing FlightAware ADS-B
Thu 11:21:55 PM 42.9600 -78.6540 117° Southeast 200 230 4,200 1,737 Climbing FlightAware ADS-B
Thu 11:22:05 PM 42.9510 -78.6490 158° South 213 245 4,400 1,371 Climbing FlightAware ADS-B
Thu 11:22:30 PM 42.9290 -78.6560 193° South 241 277 5,000 2,400 Climbing FlightAware ADS-B
Thu 11:23:00 PM 42.8970 -78.6770 206° Southwest 263 303 6,600 3,400 Climbing FlightAware ADS-B
Thu 11:23:30 PM 42.8630 -78.7000 206° Southwest 276 318 8,400 3,467 Climbing FlightAware ADS-B
Thu 11:23:45 PM 42.8470 -78.7100 205° Southwest 281 323 9,200 2,618 Climbing FlightAware ADS-B
Thu 11:24:25 PM 42.7950 -78.7440 206° Southwest 325 374 10,800 1,886 Climbing FlightAware ADS-B
Thu 11:24:55 PM 42.7550 -78.7790 213° Southwest 363 418 11,400 2,276 Climbing FlightAware ADS-B
Thu 11:25:52 PM 42.6900 -78.8790 229° Southwest 387 445 14,100 2,878 Climbing FlightAware ADS-B
Thu 11:26:33 PM 42.6400 -78.9590 230° Southwest 399 459 16,100 2,964 Climbing FlightAware ADS-B
Thu 11:27:15 PM 42.5830 -79.0450 228° Southwest 409 471 18,200 2,775 Climbing FlightAware ADS-B
Thu 11:27:53 PM 42.5360 -79.1190 229° Southwest 416 479 19,800 2,429 Climbing FlightAware ADS-B
Thu 11:28:39 PM 42.4770 -79.2090 228° Southwest 428 493 21,600 2,182 Climbing FlightAware ADS-B
Thu 11:29:21 PM 42.4200 -79.2960 228° Southwest 440 506 23,000 1,875 Climbing FlightAware ADS-B
Thu 11:29:59 PM 42.3690 -79.3760 229° Southwest 453 521 24,100 1,643 Climbing FlightAware ADS-B
Thu 11:30:45 PM 42.3050 -79.4730 228° Southwest 467 537 25,300 1,800 Climbing FlightAware ADS-B
Thu 11:31:29 PM 42.2410 -79.5700 228° Southwest 473 544 26,800 1,976 Climbing FlightAware ADS-B
Thu 11:32:10 PM 42.1810 -79.6600 228° Southwest 475 547 28,100 2,049 Climbing FlightAware ADS-B
Thu 11:32:51 PM 42.1200 -79.7530 229° Southwest 470 541 29,600 2,222 Climbing FlightAware ADS-B
Thu 11:33:31 PM 42.0620 -79.8390 228° Southwest 463 533 31,100 1,735 Climbing FlightAware ADS-B
Thu 11:34:14 PM 42.0010 -79.9320 229° Southwest 467 537 32,000 621 Climbing FlightAware ADS-B
Thu 11:34:58 PM 41.9380 -80.0270 228° Southwest 464 534 32,000  Level FlightAware ADS-B
Thu 11:35:36 PM 41.8830 -80.1080 228° Southwest 461 531 32,000  Level FlightAware ADS-B
Thu 11:36:20 PM 41.8210 -80.2020 229° Southwest 461 531 32,000  Level FlightAware ADS-B
Thu 11:37:00 PM 41.7630 -80.2870 228° Southwest 462 532 32,000  Level FlightAware ADS-B
Thu 11:37:41 PM 41.7050 -80.3720 228° Southwest 462 532 32,000  Level FlightAware ADS-B
Thu 11:38:22 PM 41.6450 -80.4630 229° Southwest 461 531 32,000  Level FlightAware ADS-B
Thu 11:39:06 PM 41.5820 -80.5560 228° Southwest 463 533 32,000  Level FlightAware ADS-B
Thu 11:39:46 PM 41.5240 -80.6390 227° Southwest 466 536 32,000  Level FlightAware ADS-B
Thu 11:40:26 PM 41.4700 -80.7200 228° Southwest 469 540 32,000  Level FlightAware ADS-B
Thu 11:41:10 PM 41.4010 -80.8200 227° Southwest 471 542 32,000  Level FlightAware ADS-B
Thu 11:41:55 PM 41.3370 -80.9130 228° Southwest 472 543 32,000  Level FlightAware ADS-B
Thu 11:42:34 PM 41.2790 -81.0020 229° Southwest 470 541 32,000  Level FlightAware ADS-B
Thu 11:43:18 PM 41.2200 -81.1020 232° Southwest 471 542 32,000  Level FlightAware ADS-B
Thu 11:43:58 PM 41.1670 -81.1940 233° Southwest 473 544 32,000  Level FlightAware ADS-B
Thu 11:44:42 PM 41.1080 -81.2950 232° Southwest 472 543 32,000  Level FlightAware ADS-B
Thu 11:45:18 PM 41.0610 -81.3760 232° Southwest 472 543 32,000  Level FlightAware ADS-B
Thu 11:46:06 PM 40.9960 -81.4880 232° Southwest 473 544 32,000  Level FlightAware ADS-B
Thu 11:46:46 PM 40.9430 -81.5770 232° Southwest 474 545 32,000  Level FlightAware ADS-B
Thu 11:47:31 PM 40.8830 -81.6800 232° Southwest 473 544 32,000  Level FlightAware ADS-B
Thu 11:48:11 PM 40.8300 -81.7710 232° Southwest 472 543 32,000  Level FlightAware ADS-B
Thu 11:48:54 PM 40.7710 -81.8690 232° Southwest 468 539 32,000  Level FlightAware ADS-B
Thu 11:49:34 PM 40.7180 -81.9580 232° Southwest 466 536 32,000  Level FlightAware ADS-B
Thu 11:50:18 PM 40.6590 -82.0570 232° Southwest 464 534 32,000  Level FlightAware ADS-B
Thu 11:51:02 PM 40.6010 -82.1560 232° Southwest 464 534 32,000  Level FlightAware ADS-B
Thu 11:51:42 PM 40.5480 -82.2460 232° Southwest 466 536 32,000  Level FlightAware ADS-B
Thu 11:52:26 PM 40.4900 -82.3420 232° Southwest 469 540 32,000  Level FlightAware ADS-B
Thu 11:53:08 PM 40.4330 -82.4360 231° Southwest 469 540 32,000  Level FlightAware ADS-B
Thu 11:53:48 PM 40.3790 -82.5250 231° Southwest 468 539 32,000  Level FlightAware ADS-B
Thu 11:54:30 PM 40.3220 -82.6200 232° Southwest 468 539 32,000  Level FlightAware ADS-B
Thu 11:55:14 PM 40.2640 -82.7160 232° Southwest 468 539 32,000  Level FlightAware ADS-B
Thu 11:56:08 PM 40.1900 -82.8350 231° Southwest 470 541 32,000  Level FlightAware ADS-B
Thu 11:56:49 PM 40.1310 -82.9250 229° Southwest 468 539 32,000  Level FlightAware ADS-B
Thu 11:57:29 PM 40.0760 -83.0090 229° Southwest 466 536 32,000  Level FlightAware ADS-B
Thu 11:58:13 PM 40.0140 -83.1030 229° Southwest 468 539 32,000  Level FlightAware ADS-B
Thu 11:58:55 PM 39.9540 -83.1940 229° Southwest 470 541 32,000 -73 Level FlightAware ADS-B
Thu 11:59:35 PM 39.8970 -83.2820 230° Southwest 473 544 31,900 -545 Descending FlightAware ADS-B
Fri 12:00:23 AM 39.8300 -83.3830 229° Southwest 456 525 31,200 -377 Descending FlightAware ADS-B
Fri 12:02:14 AM 39.8050 -83.4220 230° Southwest 451 519 30,900 -465 Descending FlightAware ADS-B
Fri 12:02:58 AM 39.6330 -83.7000 231° Southwest 440 506 30,000 -635 Descending FlightAware ADS-B
Fri 12:03:39 AM 39.5790 -83.7900 232° Southwest 442 509 30,000 -444 Level FlightAware ADS-B
Fri 12:04:19 AM 39.5280 -83.8750 232° Southwest 440 506 29,400 -929 Descending FlightAware ADS-B
Fri 12:05:03 AM 39.4740 -83.9630 232° Southwest 430 495 28,700 -977 Descending FlightAware ADS-B
Fri 12:05:45 AM 39.4230 -84.0470 232° Southwest 420 483 28,000 -1,256 Descending FlightAware ADS-B
Fri 12:06:29 AM 39.3700 -84.1320 231° Southwest 410 472 26,900 -1,884 Descending FlightAware ADS-B
Fri 12:07:11 AM 39.3210 -84.2120 232° Southwest 402 463 25,300 -2,080 Descending FlightAware ADS-B
Fri 12:07:44 AM 39.2840 -84.2720 231° Southwest 395 455 24,300 -706 Descending FlightAware ADS-B
Fri 12:08:36 AM 39.2340 -84.3530 231° Southwest 395 455 24,300  Level FlightAware ADS-B
Fri 12:09:12 AM 39.1980 -84.4090 230° Southwest 395 455 24,300 -2,240 Level FlightAware ADS-B
Fri 12:09:51 AM 39.1410 -84.5030 232° Southwest 377 434 21,500 -1,909 Descending FlightAware ADS-B
Fri 12:10:40 AM 39.0950 -84.5760 231° Southwest 377 434 21,500  Level FlightAware ADS-B
Fri 12:11:23 AM 39.0550 -84.6400 231° Southwest 377 434 21,500 -2,386 Level FlightAware ADS-B
Fri 12:12:03 AM 39.0080 -84.7160 232° Southwest 359 413 18,200 -2,605 Descending FlightAware ADS-B
Fri 12:12:39 AM 38.9760 -84.7670 231° Southwest 359 413 18,200  Level FlightAware ADS-B
Fri 12:13:27 AM 38.9330 -84.8350 231° Southwest 359 413 18,200  Level FlightAware ADS-B
Fri 12:14:03 AM 38.9010 -84.8850 231° Southwest 359 413 18,200  Level FlightAware ADS-B
Fri 12:14:51 AM 38.8590 -84.9530 232° Southwest 359 413 18,200 -1,959 Level FlightAware ADS-B
Fri 12:17:19 AM 38.6130 -85.0940 204° Southwest 321 369 11,800 -2,238 Descending FlightAware ADS-B
Fri 12:18:04 AM 38.5570 -85.1470 217° Southwest 315 362 11,000 -1,267 Descending FlightAware ADS-B
Fri 12:18:49 AM 38.5070 -85.1950 217° Southwest 308 354 9,900 -1,114 Descending FlightAware ADS-B
Fri 12:19:14 AM 38.4750 -85.2260 217° Southwest 295 339 9,700 -486 Descending FlightAware ADS-B
Fri 12:19:26 AM 38.4630 -85.2370 216° Southwest 287 330 9,600 -1,200 Descending FlightAware ADS-B
Fri 12:19:54 AM 38.4330 -85.2650 216° Southwest 284 327 8,900 -1,538 Descending FlightAware ADS-B
Fri 12:20:44 AM 38.3840 -85.3130 218° Southwest 283 326 7,600 -1,543 Descending FlightAware ADS-B
Fri 12:21:04 AM 38.3600 -85.3360 217° Southwest 279 321 7,100 -960 Descending FlightAware ADS-B
Fri 12:21:34 AM 38.3300 -85.3630 215° Southwest 276 318 6,800 -290 Descending FlightAware ADS-B
Fri 12:22:06 AM 38.3020 -85.4000 226° Southwest 251 289 6,800  Level FlightAware ADS-B
Fri 12:22:34 AM 38.2990 -85.4390 264° West 240 276 6,800  Level FlightAware ADS-B
Fri 12:22:46 AM 38.2980 -85.4570 266° West 238 274 6,800  Level FlightAware ADS-B
Fri 12:23:12 AM 38.2970 -85.4920 268° West 236 272 6,800  Level FlightAware ADS-B
Fri 12:23:42 AM 38.2950 -85.5350 267° West 237 273 6,800  Level FlightAware ADS-B
Fri 12:23:58 AM 38.2940 -85.5570 267° West 237 273 6,800 -130 Level FlightAware ADS-B
Fri 12:24:28 AM 38.2920 -85.5990 267° West 232 267 6,700 -724 Descending FlightAware ADS-B
Fri 12:24:56 AM 38.2800 -85.6340 246° West 232 267 6,100 -1,350 Descending FlightAware ADS-B
Fri 12:25:08 AM 38.2730 -85.6480 238° Southwest 232 267 5,800 -889 Descending FlightAware ADS-B
Fri 12:25:50 AM 38.2520 -85.6590 202° Southwest 229 264 5,300 -857 Descending FlightAware ADS-B
Fri 12:26:18 AM 38.2040 -85.6440 166° South 201 231 4,800 -737 Descending FlightAware ADS-B
Fri 12:26:47 AM 38.1790 -85.6360 166° South 201 231 4,600 -750 Descending FlightAware ADS-B
Fri 12:27:14 AM 38.1550 -85.6280 165° South 200 230 4,100 -873 Descending FlightAware ADS-B
Fri 12:27:42 AM 38.1290 -85.6210 168° South 192 221 3,800 -857 Descending FlightAware ADS-B
Fri 12:28:10 AM 38.1050 -85.6140 167° South 193 222 3,300 -964 Descending FlightAware ADS-B
Fri 12:28:38 AM 38.0800 -85.6080 169° South 189 217 2,900 -536 Descending FlightAware ADS-B
Fri 12:29:06 AM 38.0620 -85.6260 218° Southwest 195 224 2,800 -273 Descending FlightAware ADS-B
Fri 12:29:44 AM 38.0640 -85.6630 274° West 198 228 2,600 -621 Descending FlightAware ADS-B
Fri 12:30:04 AM 38.0770 -85.6850 307° West 177 204 2,200 -1,100 Descending FlightAware ADS-B
Fri 12:30:44 AM 38.1030 -85.7030 331° Northwest 146 168 1,500 -882 Descending FlightAware ADS-B
Fri 12:31:12 AM 38.1210 -85.7090 345° North 145 167 1,200 -750 Descending FlightAware ADS-B
Fri 12:31:40 AM 38.1390 -85.7150 345° North 144 166 800 -750 Descending FlightAware ADS-B
Fri 12:32:08 AM 38.1580 -85.7210 346° North 142 163 500 -750 Descending FlightAware ADS-B
Fri 12:32:28 AM 38.1710 -85.7260 343° North 140 161 200 -367 Descending FlightAware ADS-B
Fri 12:32:57 AM 38.1860 -85.7310 345° North 140 161 200  Level FlightAware ADS-B
Fri 12:33:31 AM 38.1830 -85.7330 208° Southwest 21 24 -353 Descending FlightAware ADS-B
Fri 12:34:02 AM 38.1800 -85.7340 195° South 26 30  Level FlightAware ADS-B
Fri 12:34:22 AM 38.1780 -85.7330 159° South 17 20  Level FlightAware ADS-B
Fri 12:35:10 AM 38.1780 -85.7370 270° West 19 22  Level FlightAware ADS-B
Fri 12:35:34 AM 38.1790 -85.7390 302° West 22 25  Level FlightAware ADS-B
Fri 12:36:04 AM 38.1800 -85.7430 288° West 15 17  Level FlightAware ADS-B
Fri 12:36:34 AM 38.1790 -85.7430 180° South 16 18  Level FlightAware ADS-B
Fri 12:39:00 AM 38.1741 -85.7365 322° Northwest  Level Estimated
Fri 12:40:00 AM 38.1741 -85.7365 322° Northwest  Level Estimated

Login

Don't have an account? Register now (free) for customized features, flight alerts, and more!